Aeroporto :
LOGIN :

Iscrizione | Disclaimer

   EN    FR    IT 

 










Sommario :    VFR   VFR Marginale   IFR   IFR Intensivo   IFR Molto Intensivo
Visibilità : 
Base nubi : 
>= 8 km
>= 3000ft
5 / 8 km
1000 / 3000 ft
1500m / 5 km
500 / 1000 ft
800 / 1500m
200 / 500 ft
< 800m
< 200 ft
Simboli :   Temporali  Nebbia  Neve Forte  Precipitazioni Forti  Vento > 20 kt
SIGMETs :   Varie  Temporali  Ghiacco  Turbolenza  Onda orograficha  Ceneri Vulcaniche






- Altitudine del aeroporto : 614 ft
- Codice IATA : CRL


EBCI - Charleroi

ULTIMO METAR :
  • 281250Z 20016KT 9999 FEW020 06/M00 Q1014 NOSIG

METARs OBSOLETI :
  • 281220Z 19017G27KT 9999 FEW020 06/M01 Q1014 NOSIG
  • 281150Z 19016KT 160V220 CAVOK 06/M01 Q1015 NOSIG
  • 281120Z 20017KT CAVOK 06/M01 Q1016 NOSIG
  • 281050Z 20013KT CAVOK 05/M01 Q1016 NOSIG
  • 281020Z 19011KT CAVOK 05/M01 Q1017 NOSIG

TAF TAF EBCI
Valido dal 28 a 12 ore il 29 a 18 ore UTC


281109Z 2812/2918 19015KT 9999 FEW020
BECMG 2813/2815 19017G28KT SCT005 BKN010
TEMPO 2814/2819 3500 RADZ BKN005
BECMG 2823/2901 FEW015 SCT030
TEMPO 2910/2914 19020G35KT 4000 RA SHRA BKN011 SCT020CB
PROB30
TEMPO 2915/2918 4500 SHRA



MetMap, La meteo Aeronautica in un colpo d'occhio ! - Copyright ORBIFLY Dicembre 2007 - Disclaimer

ORBIFLY MET'MAP TEAM :

Programmazione e sviluppo : Alexandra Zaïnal
Concezione : Baudouin d'Aumeries
Aiuto per la programmazione : Marc-Olivier Méhu
Supporto tecnico e logistico : Manuel Goepfert
Aiuto per la traduzione : Arnaldo La Scala

Contatto : metmap@orbifly.com




FONTI E CREDITI :

   NOAA